Time;durP1;ratioP1;P1;durP2;ratioP2;P2;SDS_P1;SDS_P2;PMS_P1;PMS_P2;Temp;Humidity;BMP_temperature;BMP_pressure;BME280_temperature;BME280_humidity;BME280_pressure;Samples;Min_cycle;Max_cycle;Signal;HPM_P1;HPM_P2
2023/09/08 00:01:08;;;;;;;6.22;4.00;;;24.70;55.60;26.40;101581.00;;;;5082560;28;20191;-85
2023/09/08 00:03:35;;;;;;;4.13;3.42;;;24.70;55.60;26.40;101583.00;;;;5083174;28;20603;-85
2023/09/08 00:06:04;;;;;;;5.60;4.20;;;24.70;56.20;26.30;101580.00;;;;5089781;28;20205;-85
2023/09/08 00:08:31;;;;;;;4.32;3.92;;;24.70;55.70;26.30;101583.00;;;;5074304;28;20977;-85
2023/09/08 00:10:58;;;;;;;5.18;3.95;;;24.70;55.70;26.30;101576.00;;;;5081873;28;20198;-85
2023/09/08 00:13:26;;;;;;;5.78;4.07;;;24.70;55.80;26.30;101577.00;;;;5090232;28;20309;-85
2023/09/08 00:15:53;;;;;;;4.97;4.07;;;24.70;55.80;26.30;101567.00;;;;5091182;28;20209;-86
2023/09/08 00:18:20;;;;;;;4.57;4.18;;;24.70;55.70;26.30;101576.00;;;;5089099;28;20191;-86
2023/09/08 00:20:47;;;;;;;4.63;3.83;;;24.60;55.70;26.30;101563.00;;;;5081781;28;20193;-85
2023/09/08 00:23:16;;;;;;;7.50;4.80;;;24.70;55.80;26.30;101580.00;;;;5083030;28;20841;-85
2023/09/08 00:25:43;;;;;;;4.35;3.95;;;24.70;55.80;26.30;101581.00;;;;5081262;28;20209;-84
2023/09/08 00:28:09;;;;;;;4.63;3.85;;;24.60;55.70;26.30;101580.00;;;;5088495;28;20208;-84
2023/09/08 00:30:36;;;;;;;4.90;4.30;;;24.70;55.80;26.30;101583.00;;;;5080718;28;20207;-85
2023/09/08 00:33:08;;;;;;;4.55;4.15;;;24.70;55.80;26.30;101582.00;;;;5090577;28;20308;-86
2023/09/08 00:35:39;;;;;;;4.88;4.25;;;24.70;55.80;26.30;101583.00;;;;5087466;28;20195;-85
2023/09/08 00:38:06;;;;;;;5.28;4.20;;;24.60;55.90;26.30;101589.00;;;;5088563;28;20201;-85
2023/09/08 00:40:35;;;;;;;5.80;4.38;;;24.60;55.80;26.30;101588.00;;;;5089193;28;20209;-86
2023/09/08 00:43:02;;;;;;;6.57;4.32;;;24.60;55.80;26.30;101577.00;;;;5085950;28;20206;-85
2023/09/08 00:45:31;;;;;;;7.72;4.47;;;24.60;55.80;26.20;101579.00;;;;5078459;28;20243;-85
2023/09/08 00:47:59;;;;;;;5.47;4.28;;;24.60;55.90;26.30;101583.00;;;;5087499;28;20198;-85
2023/09/08 00:50:26;;;;;;;4.10;3.70;;;24.60;55.90;26.30;101576.00;;;;5088960;28;20186;-85
2023/09/08 00:52:56;;;;;;;4.90;4.18;;;24.60;55.90;26.20;101581.00;;;;5090088;28;20214;-85
2023/09/08 00:55:24;;;;;;;4.53;4.13;;;24.60;56.00;26.20;101579.00;;;;5085497;28;20230;-85
2023/09/08 00:57:52;;;;;;;6.35;4.50;;;24.60;55.90;26.20;101582.00;;;;5082686;28;20217;-85
2023/09/08 01:00:35;;;;;;;5.00;4.50;;;24.60;56.00;26.20;101580.00;;;;5146034;27;20613;-86
2023/09/08 01:03:03;;;;;;;6.20;4.60;;;24.50;56.10;26.20;101579.00;;;;5122513;27;20197;-86
2023/09/08 01:05:30;;;;;;;4.93;4.03;;;24.50;56.00;26.20;101575.00;;;;5137020;27;20221;-86
2023/09/08 01:08:00;;;;;;;5.18;4.38;;;24.50;56.00;26.20;101574.00;;;;5125030;28;20704;-86
2023/09/08 01:10:27;;;;;;;5.10;4.60;;;24.50;56.00;26.20;101571.00;;;;5126934;28;20580;-85
2023/09/08 01:12:55;;;;;;;4.93;4.43;;;24.50;56.10;26.10;101578.00;;;;5126592;27;20219;-86
2023/09/08 01:15:21;;;;;;;5.45;4.38;;;24.50;56.10;26.10;101570.00;;;;5125982;27;20201;-86
2023/09/08 01:17:50;;;;;;;5.40;4.82;;;24.50;56.10;26.10;101565.00;;;;5125863;28;20192;-86
2023/09/08 01:20:23;;;;;;;5.07;4.57;;;24.40;56.10;26.10;101568.00;;;;5114098;27;20291;-86
2023/09/08 01:23:12;;;;;;;4.93;4.22;;;24.40;56.10;25.90;101570.00;;;;5123886;28;20193;-86
2023/09/08 01:25:45;;;;;;;5.25;4.70;;;24.40;56.40;26.00;101568.00;;;;5126279;28;20189;-86
2023/09/08 01:28:15;;;;;;;4.93;4.43;;;24.40;56.10;26.00;101571.00;;;;5126236;27;20234;-86
2023/09/08 01:30:42;;;;;;;5.65;4.80;;;24.40;56.10;26.00;101576.00;;;;5124694;27;20626;-86
2023/09/08 01:33:09;;;;;;;6.90;5.22;;;24.30;56.20;26.00;101571.00;;;;5125428;28;20555;-86
2023/09/08 01:35:37;;;;;;;5.13;4.63;;;24.30;56.20;26.00;101569.00;;;;5126375;27;20246;-86
2023/09/08 01:38:04;;;;;;;5.57;4.70;;;24.30;56.20;25.90;101572.00;;;;5106864;28;20229;-86
2023/09/08 01:40:31;;;;;;;5.43;4.90;;;24.20;56.20;25.90;101565.00;;;;5116617;28;20225;-86
2023/09/08 01:42:59;;;;;;;6.85;5.05;;;24.20;56.20;25.90;101564.00;;;;5115736;28;20202;-86
2023/09/08 01:45:33;;;;;;;5.75;4.72;;;24.20;56.30;25.80;101561.00;;;;5115810;28;20198;-86
2023/09/08 01:48:00;;;;;;;7.57;5.43;;;24.20;56.60;25.90;101568.00;;;;5123005;28;20204;-85
2023/09/08 01:50:27;;;;;;;5.60;5.00;;;24.20;56.40;25.80;101561.00;;;;5127798;27;20207;-86
2023/09/08 01:52:54;;;;;;;5.50;5.00;;;24.20;56.40;25.80;101569.00;;;;5125914;27;20228;-86
2023/09/08 01:55:21;;;;;;;5.38;4.88;;;24.10;56.40;25.80;101554.00;;;;5118903;27;20197;-86
2023/09/08 01:57:48;;;;;;;5.10;4.28;;;24.10;56.40;25.80;101564.00;;;;5105769;28;20182;-86
2023/09/08 02:00:17;;;;;;;6.13;5.50;;;24.10;56.50;25.80;101564.00;;;;5105377;28;20744;-86
2023/09/08 02:02:44;;;;;;;7.05;5.03;;;24.10;56.50;25.70;101569.00;;;;5110610;28;20213;-86
2023/09/08 02:05:11;;;;;;;5.32;4.82;;;24.00;56.50;25.70;101568.00;;;;5124608;27;20813;-85
2023/09/08 02:07:38;;;;;;;6.57;5.28;;;24.00;56.50;25.70;101575.00;;;;5112878;27;20225;-86
2023/09/08 02:10:06;;;;;;;5.53;4.90;;;24.00;56.60;25.70;101573.00;;;;5122986;27;20252;-86
2023/09/08 02:12:33;;;;;;;6.35;4.88;;;24.00;56.70;25.70;101568.00;;;;5092497;28;20317;-86
2023/09/08 02:15:01;;;;;;;5.70;4.65;;;24.00;56.70;25.60;101569.00;;;;5101854;28;20193;-86
2023/09/08 02:17:29;;;;;;;6.18;4.85;;;23.90;56.70;25.60;101562.00;;;;5112059;28;20194;-86
2023/09/08 02:19:56;;;;;;;6.68;5.18;;;23.90;56.70;25.60;101564.00;;;;5103705;28;20230;-86
2023/09/08 02:22:23;;;;;;;6.05;5.28;;;23.90;56.70;25.60;101562.00;;;;5098952;28;20198;-86
2023/09/08 02:24:51;;;;;;;7.03;4.80;;;23.90;56.70;25.60;101566.00;;;;5100277;28;20194;-87
2023/09/08 02:27:20;;;;;;;6.57;4.95;;;23.90;56.80;25.50;101556.00;;;;5100323;28;20190;-85
2023/09/08 02:29:47;;;;;;;4.88;4.20;;;23.90;56.80;25.50;101552.00;;;;5103560;28;20612;-86
2023/09/08 02:32:14;;;;;;;6.07;5.43;;;23.80;56.80;25.50;101547.00;;;;5091031;28;20667;-86
2023/09/08 02:34:43;;;;;;;5.40;4.90;;;23.80;56.80;25.50;101554.00;;;;5103194;28;20202;-86
2023/09/08 02:37:10;;;;;;;7.25;5.40;;;23.80;56.90;25.50;101551.00;;;;5092845;28;20205;-86
2023/09/08 02:39:37;;;;;;;8.32;5.40;;;23.80;56.90;25.50;101556.00;;;;5103762;28;20259;-85
2023/09/08 02:42:04;;;;;;;6.35;5.43;;;23.80;56.90;25.50;101555.00;;;;5091010;28;20201;-86
2023/09/08 02:44:33;;;;;;;5.55;4.95;;;23.80;57.00;25.40;101559.00;;;;5097110;28;20272;-86
2023/09/08 02:47:00;;;;;;;11.45;5.95;;;23.70;57.00;25.40;101558.00;;;;5097380;28;20191;-86
2023/09/08 02:49:27;;;;;;;9.32;4.95;;;23.70;57.00;25.40;101553.00;;;;5109717;28;21040;-86
2023/09/08 02:51:55;;;;;;;9.25;5.10;;;23.70;57.10;25.40;101558.00;;;;5107485;28;20190;-85
2023/09/08 02:54:22;;;;;;;6.53;5.00;;;23.70;57.10;25.40;101560.00;;;;5095356;28;20231;-86
2023/09/08 02:56:49;;;;;;;8.68;5.15;;;23.60;57.00;25.40;101557.00;;;;5105176;27;20197;-85
2023/09/08 02:59:16;;;;;;;6.18;5.22;;;23.60;57.10;25.30;101563.00;;;;5107094;27;20233;-86
2023/09/08 03:01:43;;;;;;;6.88;6.13;;;23.60;57.10;25.30;101558.00;;;;5101603;28;20679;-86
2023/09/08 03:04:10;;;;;;;5.85;5.18;;;23.60;57.20;25.30;101565.00;;;;5102714;28;20197;-85
2023/09/08 03:06:37;;;;;;;7.72;5.72;;;23.60;57.20;25.30;101561.00;;;;5109302;28;20267;-85
2023/09/08 03:09:06;;;;;;;8.38;6.03;;;23.60;57.20;25.20;101559.00;;;;5110966;28;20340;-86
2023/09/08 03:11:33;;;;;;;5.75;5.22;;;23.50;57.20;25.20;101560.00;;;;5110789;27;20202;-86
2023/09/08 03:14:00;;;;;;;6.75;5.25;;;23.50;57.20;25.20;101563.00;;;;5107618;28;20558;-86
2023/09/08 03:16:27;;;;;;;7.38;5.68;;;23.50;57.30;25.20;101562.00;;;;5095337;28;20194;-86
2023/09/08 03:18:54;;;;;;;5.93;5.25;;;23.50;57.30;25.20;101558.00;;;;5101069;28;20194;-86
2023/09/08 03:21:21;;;;;;;5.97;5.32;;;23.50;57.30;25.20;101564.00;;;;5103357;28;20193;-85
2023/09/08 03:23:48;;;;;;;7.05;5.78;;;23.50;57.40;25.10;101558.00;;;;5102275;28;20198;-86
2023/09/08 03:26:16;;;;;;;6.90;5.95;;;23.40;57.40;25.10;101560.00;;;;5090155;28;20204;-85
2023/09/08 03:28:44;;;;;;;6.15;5.13;;;23.40;57.40;25.10;101557.00;;;;5108707;28;20655;-86
2023/09/08 03:31:11;;;;;;;6.82;6.07;;;23.40;57.40;25.10;101550.00;;;;5109049;28;20694;-86
2023/09/08 03:33:37;;;;;;;6.60;5.70;;;23.40;57.50;25.10;101548.00;;;;5110100;28;20577;-86
2023/09/08 03:36:05;;;;;;;7.78;5.28;;;23.30;57.40;25.00;101551.00;;;;5099607;28;20202;-86
2023/09/08 03:38:32;;;;;;;5.82;5.22;;;23.30;57.50;25.00;101542.00;;;;5100320;28;20208;-86
2023/09/08 03:40:59;;;;;;;7.53;6.07;;;23.30;57.60;25.00;101536.00;;;;5101217;28;20203;-87
2023/09/08 03:43:27;;;;;;;7.38;6.18;;;23.30;57.60;25.00;101541.00;;;;5092515;28;20190;-87
2023/09/08 03:45:54;;;;;;;8.18;5.95;;;23.30;57.60;25.00;101533.00;;;;5104784;28;20193;-85
2023/09/08 03:48:21;;;;;;;6.82;6.03;;;23.30;57.60;25.00;101539.00;;;;5107151;28;20201;-86
2023/09/08 03:50:48;;;;;;;6.70;6.10;;;23.20;57.60;24.90;101534.00;;;;5104539;28;20189;-86
2023/09/08 03:53:15;;;;;;;6.50;5.80;;;23.20;57.70;24.90;101525.00;;;;5102365;28;20194;-86
2023/09/08 03:55:42;;;;;;;6.57;5.85;;;23.20;57.70;24.90;101535.00;;;;5101244;28;20194;-85
2023/09/08 03:58:09;;;;;;;9.40;6.20;;;23.20;57.80;24.90;101526.00;;;;5110037;28;20197;-86
2023/09/08 04:00:38;;;;;;;6.95;5.85;;;23.20;57.80;24.90;101529.00;;;;5109251;28;20608;-86
2023/09/08 04:03:05;;;;;;;8.82;6.10;;;23.10;57.80;24.90;101526.00;;;;5097483;28;20197;-85
2023/09/08 04:05:33;;;;;;;7.22;6.43;;;23.10;57.80;24.90;101528.00;;;;5107423;28;20218;-85
2023/09/08 04:08:01;;;;;;;6.95;6.25;;;23.10;57.80;24.90;101529.00;;;;5108021;28;20213;-85
2023/09/08 04:10:28;;;;;;;6.32;5.63;;;23.10;57.90;24.80;101529.00;;;;5100817;28;20244;-86
2023/09/08 04:12:55;;;;;;;7.90;6.15;;;23.10;57.90;24.80;101534.00;;;;5103395;28;20568;-86
2023/09/08 04:15:22;;;;;;;7.60;5.57;;;23.10;57.90;24.80;101523.00;;;;5109556;28;20204;-85
2023/09/08 04:17:50;;;;;;;7.20;6.10;;;23.10;57.90;24.80;101526.00;;;;5091252;28;20281;-86
2023/09/08 04:20:18;;;;;;;7.28;6.22;;;23.10;58.00;24.80;101525.00;;;;5094309;28;20222;-86
2023/09/08 04:22:45;;;;;;;8.00;6.35;;;23.10;58.00;24.80;101522.00;;;;5109689;28;20201;-87
2023/09/08 04:25:12;;;;;;;8.15;6.22;;;23.10;58.00;24.80;101522.00;;;;5102139;28;20204;-86
2023/09/08 04:27:40;;;;;;;5.90;5.18;;;23.10;58.00;24.80;101524.00;;;;5093904;28;20687;-86
2023/09/08 04:30:09;;;;;;;6.93;5.35;;;23.00;58.00;24.70;101523.00;;;;5107451;28;20212;-85
2023/09/08 04:32:37;;;;;;;7.28;6.55;;;23.00;58.00;24.70;101524.00;;;;5096498;28;20194;-85
2023/09/08 04:35:07;;;;;;;8.15;7.20;;;23.00;58.00;24.70;101525.00;;;;5099473;28;20259;-85
2023/09/08 04:37:34;;;;;;;7.05;5.80;;;23.00;58.10;24.70;101522.00;;;;5100594;28;20198;-86
2023/09/08 04:40:04;;;;;;;10.45;6.80;;;23.00;58.10;24.70;101522.00;;;;5092672;28;20230;-86
2023/09/08 04:42:31;;;;;;;6.60;5.88;;;23.00;58.20;24.70;101531.00;;;;5089872;28;20648;-86
2023/09/08 04:44:58;;;;;;;7.20;6.15;;;22.90;58.10;24.70;101527.00;;;;5095488;28;20206;-85
2023/09/08 04:47:25;;;;;;;6.65;5.57;;;22.90;58.10;24.70;101530.00;;;;5100848;28;20205;-86
2023/09/08 04:49:52;;;;;;;8.32;6.53;;;22.90;58.20;24.70;101529.00;;;;5094528;28;20189;-86
2023/09/08 04:52:20;;;;;;;7.82;6.65;;;22.90;58.20;24.60;101530.00;;;;5104057;28;20193;-85
2023/09/08 04:54:47;;;;;;;8.43;6.32;;;22.90;58.20;24.60;101527.00;;;;5106379;28;20217;-85
2023/09/08 04:57:14;;;;;;;10.25;6.47;;;22.90;58.30;24.60;101526.00;;;;5106141;28;20192;-86
2023/09/08 04:59:41;;;;;;;7.38;6.18;;;22.90;58.30;24.60;101513.00;;;;5102354;28;20225;-86
2023/09/08 05:02:08;;;;;;;7.60;6.32;;;22.90;58.30;24.60;101525.00;;;;5098327;28;20198;-85
2023/09/08 05:04:35;;;;;;;7.93;6.63;;;22.90;58.40;24.60;101534.00;;;;5104306;28;20189;-84
2023/09/08 05:07:02;;;;;;;7.38;6.57;;;22.80;58.40;24.60;101529.00;;;;5101406;28;20213;-84
2023/09/08 05:09:30;;;;;;;7.50;6.03;;;22.90;58.40;24.50;101534.00;;;;5108580;28;20196;-84
2023/09/08 05:11:59;;;;;;;8.05;7.22;;;22.80;58.40;24.50;101535.00;;;;5106260;28;20205;-84
2023/09/08 05:14:26;;;;;;;7.60;6.60;;;22.80;58.40;24.50;101527.00;;;;5109471;28;20196;-86
2023/09/08 05:16:55;;;;;;;7.10;6.38;;;22.80;58.50;24.50;101524.00;;;;5100184;28;20193;-78
2023/09/08 05:19:23;;;;;;;7.38;6.13;;;22.80;58.50;24.50;101530.00;;;;5107820;28;20277;-78
2023/09/08 05:21:52;;;;;;;10.63;6.70;;;22.80;58.60;24.50;101527.00;;;;5104033;28;20229;-81
2023/09/08 05:24:20;;;;;;;9.13;6.43;;;22.80;58.60;24.50;101528.00;;;;5106717;28;20201;-81
2023/09/08 05:26:49;;;;;;;7.07;6.32;;;22.80;58.60;24.50;101535.00;;;;5108529;28;20201;-80
2023/09/08 05:29:16;;;;;;;8.18;6.78;;;22.80;58.70;24.60;101534.00;;;;5105578;28;20217;-81
2023/09/08 05:31:43;;;;;;;7.60;6.32;;;22.80;58.70;24.60;101539.00;;;;5094522;28;20190;-81
2023/09/08 05:34:10;;;;;;;7.38;6.68;;;22.80;58.70;24.60;101538.00;;;;5104824;28;20213;-80
2023/09/08 05:36:39;;;;;;;7.90;6.80;;;22.80;58.70;24.60;101535.00;;;;5090132;28;20198;-81
2023/09/08 05:39:07;;;;;;;9.48;7.32;;;22.80;58.70;24.60;101535.00;;;;5097299;28;20747;-81
2023/09/08 05:41:34;;;;;;;9.35;7.40;;;22.90;58.80;24.60;101539.00;;;;5094669;28;20214;-79
2023/09/08 05:44:02;;;;;;;11.48;7.15;;;22.90;58.80;24.60;101541.00;;;;5090481;28;20226;-81
2023/09/08 05:46:30;;;;;;;7.55;6.60;;;22.90;58.80;24.60;101546.00;;;;5096039;28;20199;-78
2023/09/08 05:48:57;;;;;;;9.07;6.80;;;22.90;58.80;24.70;101554.00;;;;5100479;28;20197;-78
2023/09/08 05:51:24;;;;;;;7.50;6.65;;;22.90;58.80;24.70;101549.00;;;;5099758;28;20278;-79
2023/09/08 05:53:51;;;;;;;7.78;6.15;;;23.00;58.80;24.70;101554.00;;;;5110651;28;20202;-80
2023/09/08 05:56:19;;;;;;;7.45;5.80;;;23.00;58.90;24.70;101558.00;;;;5096077;28;21773;-79
2023/09/08 05:58:47;;;;;;;7.57;6.55;;;23.00;58.90;24.80;101555.00;;;;5105613;28;20238;-78
2023/09/08 06:01:17;;;;;;;10.57;7.10;;;23.10;58.90;24.80;101550.00;;;;5104382;28;20218;-79
2023/09/08 06:03:44;;;;;;;8.00;6.72;;;23.10;59.00;24.80;101553.00;;;;5110369;28;20220;-78
2023/09/08 06:06:11;;;;;;;8.23;6.68;;;23.10;58.90;24.90;101564.00;;;;5111314;28;20190;-78
2023/09/08 06:08:38;;;;;;;9.73;6.00;;;23.10;59.60;24.90;101554.00;;;;5109978;28;20197;-78
2023/09/08 06:11:05;;;;;;;7.57;6.10;;;23.20;59.00;25.00;101557.00;;;;5109079;28;20193;-78
2023/09/08 06:13:32;;;;;;;6.85;6.22;;;23.20;59.00;25.00;101557.00;;;;5097940;28;20206;-78
2023/09/08 06:15:59;;;;;;;6.75;6.10;;;23.30;59.00;25.10;101565.00;;;;5096300;28;20205;-79
2023/09/08 06:18:31;;;;;;;7.80;7.00;;;23.30;59.00;25.10;101558.00;;;;5111419;28;20190;-78
2023/09/08 06:20:58;;;;;;;7.03;6.25;;;23.40;59.00;25.20;101562.00;;;;5102013;28;20255;-78
2023/09/08 06:23:25;;;;;;;7.78;6.38;;;23.40;58.90;25.20;101558.00;;;;5110693;28;21073;-79
2023/09/08 06:25:58;;;;;;;10.55;7.18;;;23.50;58.90;25.30;101565.00;;;;5103115;28;20213;-79
2023/09/08 06:28:25;;;;;;;8.15;6.28;;;23.50;58.80;25.30;101557.00;;;;5091385;28;20639;-79
2023/09/08 06:30:52;;;;;;;10.27;6.88;;;23.60;58.80;25.40;101564.00;;;;5091945;28;20198;-79
2023/09/08 06:33:19;;;;;;;9.82;7.18;;;23.70;58.90;25.50;101565.00;;;;5102050;28;20198;-78
2023/09/08 06:35:48;;;;;;;9.32;7.20;;;23.70;58.80;25.50;101566.00;;;;5091723;28;20664;-78
2023/09/08 06:38:15;;;;;;;7.95;6.85;;;23.80;58.80;25.60;101579.00;;;;5090775;28;20218;-79
2023/09/08 06:40:42;;;;;;;10.70;7.82;;;23.80;58.60;25.60;101573.00;;;;5102519;28;20228;-79
2023/09/08 06:43:09;;;;;;;9.25;7.38;;;23.90;58.60;25.70;101573.00;;;;5104088;28;20208;-78
2023/09/08 06:45:39;;;;;;;8.93;8.00;;;24.00;58.60;25.70;101574.00;;;;5109546;28;20210;-78
2023/09/08 06:48:07;;;;;;;10.38;8.88;;;24.00;58.40;25.80;101571.00;;;;5109935;28;20189;-80
2023/09/08 06:50:34;;;;;;;10.93;7.50;;;24.10;58.30;25.80;101570.00;;;;5101133;28;20558;-81
2023/09/08 06:53:03;;;;;;;9.25;8.15;;;24.10;58.20;25.80;101572.00;;;;5098617;28;20197;-79
2023/09/08 06:55:30;;;;;;;9.25;7.65;;;24.20;58.20;25.90;101577.00;;;;5106332;28;20213;-79
2023/09/08 06:57:57;;;;;;;9.13;7.70;;;24.30;58.20;26.00;101577.00;;;;5110242;28;20727;-79
2023/09/08 07:00:24;;;;;;;11.55;7.97;;;24.30;58.20;26.00;101582.00;;;;5108666;28;20236;-79
2023/09/08 07:02:51;;;;;;;10.32;7.68;;;24.30;58.10;26.10;101584.00;;;;5109987;28;20193;-79
2023/09/08 07:05:18;;;;;;;9.45;7.75;;;24.40;58.20;26.20;101579.00;;;;5108328;28;20206;-80
2023/09/08 07:07:45;;;;;;;9.35;7.60;;;24.50;58.10;26.20;101579.00;;;;5110396;28;20221;-79
2023/09/08 07:10:14;;;;;;;8.73;7.25;;;24.60;58.10;26.30;101572.00;;;;5106105;28;20192;-79
2023/09/08 07:12:41;;;;;;;9.88;7.47;;;24.60;58.00;26.40;101589.00;;;;5109830;28;20189;-79
2023/09/08 07:15:09;;;;;;;10.07;8.02;;;24.70;58.00;26.40;101585.00;;;;5098785;28;20210;-79
2023/09/08 07:17:36;;;;;;;9.93;7.90;;;24.70;58.00;26.50;101583.00;;;;5100124;28;20210;-79
2023/09/08 07:20:04;;;;;;;9.63;7.70;;;24.80;58.00;26.60;101583.00;;;;5107915;27;20584;-79
2023/09/08 07:22:31;;;;;;;8.75;7.55;;;24.90;58.00;26.60;101578.00;;;;5109599;28;20779;-79
2023/09/08 07:24:58;;;;;;;9.88;7.95;;;24.90;57.90;26.70;101591.00;;;;5109613;28;20642;-79
2023/09/08 07:27:26;;;;;;;15.98;8.40;;;25.00;57.80;26.70;101591.00;;;;5109735;28;20194;-79
2023/09/08 07:29:54;;;;;;;8.93;8.02;;;25.00;58.30;26.80;101584.00;;;;5096830;28;20198;-79
2023/09/08 07:32:22;;;;;;;8.45;7.28;;;25.20;57.80;26.90;101588.00;;;;5104698;28;20198;-79
2023/09/08 07:34:54;;;;;;;8.55;7.65;;;25.20;57.70;26.90;101593.00;;;;5109515;28;20208;-79
2023/09/08 07:37:22;;;;;;;8.55;6.90;;;25.20;57.70;27.00;101590.00;;;;5109494;28;20194;-80
2023/09/08 07:39:48;;;;;;;10.20;8.32;;;25.30;57.70;27.10;101595.00;;;;5106106;28;20206;-83
2023/09/08 07:42:15;;;;;;;9.02;7.07;;;25.40;57.70;27.10;101593.00;;;;5102658;28;20225;-80
2023/09/08 07:44:45;;;;;;;8.73;7.78;;;25.40;57.70;27.20;101605.00;;;;5108156;28;20197;-79
2023/09/08 07:47:12;;;;;;;8.48;7.43;;;25.50;57.70;27.30;101598.00;;;;5109587;27;20221;-80
2023/09/08 07:49:39;;;;;;;8.85;7.95;;;25.60;57.70;27.30;101597.00;;;;5111962;28;20197;-80
2023/09/08 07:52:07;;;;;;;9.27;7.05;;;25.70;57.70;27.40;101598.00;;;;5093124;28;20958;-80
2023/09/08 07:54:34;;;;;;;8.07;7.28;;;25.70;57.60;27.50;101588.00;;;;5107430;28;20194;-80
2023/09/08 07:57:01;;;;;;;8.60;6.88;;;25.80;57.60;27.60;101595.00;;;;5093405;28;20191;-80
2023/09/08 07:59:28;;;;;;;9.07;7.90;;;25.80;57.60;27.60;101593.00;;;;5102659;28;20276;-82
2023/09/08 08:01:57;;;;;;;10.88;8.05;;;26.00;57.70;27.70;101596.00;;;;5108162;28;20273;-80
2023/09/08 08:04:24;;;;;;;8.43;7.45;;;26.00;57.60;27.80;101594.00;;;;5108612;28;20670;-79
2023/09/08 08:06:51;;;;;;;10.45;7.25;;;26.10;57.70;27.90;101595.00;;;;5098356;28;20213;-79
2023/09/08 08:09:18;;;;;;;11.95;7.88;;;26.20;57.70;28.00;101596.00;;;;5106743;28;20205;-80
2023/09/08 08:11:45;;;;;;;9.65;7.32;;;26.30;57.70;28.10;101597.00;;;;5109210;28;20194;-80
2023/09/08 08:14:12;;;;;;;10.43;8.23;;;26.40;57.60;28.20;101591.00;;;;5101573;28;20944;-80
2023/09/08 08:16:39;;;;;;;9.52;8.48;;;26.50;57.50;28.20;101591.00;;;;5100642;28;20319;-80
2023/09/08 08:19:07;;;;;;;9.13;7.57;;;26.50;57.30;28.30;101589.00;;;;5108238;28;20564;-79
2023/09/08 08:21:34;;;;;;;8.30;7.03;;;26.60;57.30;28.40;101595.00;;;;5108048;28;20229;-80
2023/09/08 08:24:01;;;;;;;8.80;7.60;;;26.70;57.30;28.50;101580.00;;;;5106724;28;20194;-79
2023/09/08 08:26:32;;;;;;;11.27;8.18;;;26.80;57.20;28.60;101582.00;;;;5098878;28;20596;-80
2023/09/08 08:28:59;;;;;;;7.55;6.82;;;26.90;57.20;28.70;101588.00;;;;5108116;28;20429;-80
2023/09/08 08:31:26;;;;;;;8.88;7.97;;;27.00;57.20;28.70;101576.00;;;;5108483;28;20214;-80
2023/09/08 08:33:53;;;;;;;9.43;8.32;;;27.10;57.20;28.80;101578.00;;;;5105142;28;20281;-80
2023/09/08 08:36:21;;;;;;;7.50;6.80;;;27.20;57.20;28.90;101581.00;;;;5090249;28;20616;-81
2023/09/08 08:38:48;;;;;;;9.95;7.82;;;27.30;57.10;29.00;101587.00;;;;5103006;28;20204;-80
2023/09/08 08:41:16;;;;;;;9.05;7.72;;;27.40;57.10;29.10;101583.00;;;;5104670;28;20222;-80
2023/09/08 08:43:45;;;;;;;8.57;7.68;;;27.50;57.10;29.20;101591.00;;;;5088777;28;20205;-81
2023/09/08 08:46:14;;;;;;;8.35;7.40;;;27.50;57.10;29.30;101589.00;;;;5097025;28;20205;-81
2023/09/08 08:48:43;;;;;;;14.13;8.70;;;27.70;57.10;29.50;101589.00;;;;5087881;28;20202;-81
2023/09/08 08:51:13;;;;;;;11.35;8.10;;;27.80;56.90;29.50;101589.00;;;;5102583;28;20198;-80
2023/09/08 08:53:42;;;;;;;13.00;8.00;;;27.90;56.80;29.60;101592.00;;;;5104981;28;20212;-80
2023/09/08 08:56:11;;;;;;;7.13;6.47;;;28.00;56.80;29.70;101590.00;;;;5099067;28;22476;-81
2023/09/08 08:58:40;;;;;;;8.35;7.30;;;28.10;56.70;29.80;101590.00;;;;5105777;28;20225;-80
2023/09/08 09:01:11;;;;;;;11.68;7.28;;;28.20;56.60;29.90;101589.00;;;;5095725;28;20225;-80
2023/09/08 09:03:42;;;;;;;9.07;8.07;;;28.30;56.50;30.00;101588.00;;;;5106562;28;20568;-82
2023/09/08 09:06:11;;;;;;;9.02;8.02;;;28.40;56.50;30.10;101587.00;;;;5105831;28;20200;-80
2023/09/08 09:08:42;;;;;;;11.35;7.45;;;28.50;56.40;30.20;101589.00;;;;5103520;28;20221;-80
2023/09/08 09:11:10;;;;;;;12.15;8.55;;;28.60;56.30;30.30;101596.00;;;;5088086;28;20274;-80
2023/09/08 09:13:37;;;;;;;9.65;8.32;;;28.70;56.20;30.50;101599.00;;;;5107323;28;20197;-80
2023/09/08 09:16:07;;;;;;;8.73;7.63;;;28.80;56.20;30.60;101591.00;;;;5097913;28;20668;-80
2023/09/08 09:18:35;;;;;;;9.55;7.95;;;29.00;56.20;30.70;101594.00;;;;5105175;28;20292;-80
2023/09/08 09:21:03;;;;;;;12.65;7.45;;;29.10;56.10;30.80;101597.00;;;;5110216;28;20557;-80
2023/09/08 09:23:31;;;;;;;12.77;8.27;;;29.20;56.00;30.90;101600.00;;;;5111508;28;20201;-79
2023/09/08 09:26:03;;;;;;;9.18;8.07;;;29.30;56.00;31.00;101596.00;;;;5112548;28;21087;-80
2023/09/08 09:28:31;;;;;;;9.27;7.53;;;29.40;55.80;31.20;101604.00;;;;5097512;28;20254;-80
2023/09/08 09:30:59;;;;;;;8.25;7.35;;;29.50;55.80;31.30;101608.00;;;;5113021;28;20193;-81
2023/09/08 09:33:26;;;;;;;9.88;8.45;;;29.70;55.70;31.40;101598.00;;;;5100048;28;20198;-80
2023/09/08 09:35:55;;;;;;;8.82;7.80;;;29.80;55.50;31.50;101598.00;;;;5092724;28;20205;-80
2023/09/08 09:38:27;;;;;;;9.73;7.88;;;29.90;55.30;31.60;101596.00;;;;5094777;28;20232;-80
2023/09/08 09:40:55;;;;;;;8.65;7.53;;;30.00;55.80;31.70;101591.00;;;;5112430;28;20186;-80
2023/09/08 09:43:23;;;;;;;8.18;6.38;;;30.10;55.00;31.80;101594.00;;;;5111332;28;20217;-80
2023/09/08 09:45:50;;;;;;;9.43;7.57;;;30.20;55.10;31.90;101593.00;;;;5111492;28;20209;-80
2023/09/08 09:48:23;;;;;;;8.55;7.53;;;30.30;54.90;32.00;101597.00;;;;5093895;28;20276;-80
2023/09/08 09:50:50;;;;;;;8.80;7.57;;;30.50;54.80;32.10;101590.00;;;;5093874;28;20791;-80
2023/09/08 09:53:18;;;;;;;8.68;7.78;;;30.60;54.80;32.20;101593.00;;;;5091945;28;20194;-79
2023/09/08 09:55:46;;;;;;;9.23;7.32;;;30.70;54.60;32.30;101596.00;;;;5106739;28;20201;-80
2023/09/08 09:58:14;;;;;;;8.02;7.22;;;30.80;54.60;32.40;101602.00;;;;5106114;28;20280;-80
2023/09/08 10:00:47;;;;;;;8.10;7.05;;;30.90;54.30;32.50;101596.00;;;;5111700;28;20193;-79
2023/09/08 10:03:15;;;;;;;10.65;7.15;;;31.00;54.30;32.60;101597.00;;;;5111008;28;20276;-80
2023/09/08 10:05:42;;;;;;;8.18;6.68;;;31.20;54.10;32.70;101596.00;;;;5111822;28;20570;-81
2023/09/08 10:08:09;;;;;;;9.30;7.97;;;31.20;54.00;32.80;101599.00;;;;5091633;28;20221;-81
2023/09/08 10:10:37;;;;;;;11.60;8.35;;;31.30;53.80;32.90;101592.00;;;;5091158;28;20962;-80
2023/09/08 10:13:07;;;;;;;12.07;8.32;;;31.40;53.60;33.00;101604.00;;;;5099388;28;20217;-80
2023/09/08 10:15:37;;;;;;;8.38;7.50;;;31.50;53.30;33.10;101599.00;;;;5106706;28;20198;-81
2023/09/08 10:18:08;;;;;;;8.65;7.35;;;31.60;53.20;33.20;101590.00;;;;5096800;28;20185;-80
2023/09/08 10:20:38;;;;;;;7.75;6.50;;;31.70;53.00;33.20;101595.00;;;;5111636;28;20197;-80
2023/09/08 10:23:11;;;;;;;7.60;6.75;;;31.80;53.20;33.40;101596.00;;;;5109337;28;20197;-79
2023/09/08 10:25:53;;;;;;;8.60;6.65;;;31.90;53.20;33.40;101592.00;;;;5097283;28;20185;-80
2023/09/08 10:28:22;;;;;;;9.10;8.07;;;32.00;52.80;33.60;101593.00;;;;5100300;28;20647;-80
2023/09/08 10:30:51;;;;;;;9.05;7.75;;;32.10;53.00;33.70;101592.00;;;;5110612;28;20194;-80
2023/09/08 10:33:23;;;;;;;8.35;7.32;;;32.20;53.00;33.80;101583.00;;;;5110682;28;20278;-81
2023/09/08 10:35:51;;;;;;;8.57;7.10;;;32.30;52.60;33.90;101591.00;;;;5108769;28;20841;-80
2023/09/08 10:38:26;;;;;;;8.68;7.43;;;32.40;52.50;33.90;101585.00;;;;5108633;28;20197;-80
2023/09/08 10:40:54;;;;;;;7.70;6.85;;;32.50;52.00;34.00;101585.00;;;;5100954;28;20209;-80
2023/09/08 10:43:21;;;;;;;8.90;7.95;;;32.60;52.30;34.10;101588.00;;;;5090753;28;20208;-80
2023/09/08 10:45:49;;;;;;;8.27;6.30;;;32.70;52.10;34.20;101580.00;;;;5098112;28;20198;-80
2023/09/08 10:48:16;;;;;;;9.40;7.53;;;32.80;52.10;34.30;101580.00;;;;5090330;28;20735;-81